sensor_id;sensor_type;location;lat;lon;timestamp;temperature;humidity
3232;DHT22;1628;48.884;9.210;2022-11-25T05:00:34;4.50;99.90
3232;DHT22;1628;48.884;9.210;2022-11-25T05:03:01;4.40;99.90
3232;DHT22;1628;48.884;9.210;2022-11-25T05:05:28;4.40;99.90
3232;DHT22;1628;48.884;9.210;2022-11-25T05:07:55;4.40;99.90
3232;DHT22;1628;48.884;9.210;2022-11-25T05:10:22;4.40;99.90
3232;DHT22;1628;48.884;9.210;2022-11-25T05:12:49;4.40;99.90
3232;DHT22;1628;48.884;9.210;2022-11-25T05:15:16;4.30;99.90
3232;DHT22;1628;48.884;9.210;2022-11-25T05:17:44;4.30;99.90
3232;DHT22;1628;48.884;9.210;2022-11-25T05:20:11;4.30;99.90
3232;DHT22;1628;48.884;9.210;2022-11-25T05:22:38;4.30;99.90
3232;DHT22;1628;48.884;9.210;2022-11-25T05:25:05;4.30;99.90
3232;DHT22;1628;48.884;9.210;2022-11-25T05:27:31;4.30;99.90
3232;DHT22;1628;48.884;9.210;2022-11-25T05:29:58;4.30;99.90
3232;DHT22;1628;48.884;9.210;2022-11-25T05:32:25;4.20;99.90
3232;DHT22;1628;48.884;9.210;2022-11-25T05:34:53;4.20;99.90
3232;DHT22;1628;48.884;9.210;2022-11-25T05:37:19;4.20;99.90
3232;DHT22;1628;48.884;9.210;2022-11-25T05:39:47;4.20;99.90
3232;DHT22;1628;48.884;9.210;2022-11-25T05:42:14;4.20;99.90
3232;DHT22;1628;48.884;9.210;2022-11-25T05:44:40;4.20;99.90
3232;DHT22;1628;48.884;9.210;2022-11-25T05:47:08;4.20;99.90
3232;DHT22;1628;48.884;9.210;2022-11-25T05:49:34;4.20;99.90
3232;DHT22;1628;48.884;9.210;2022-11-25T05:52:02;4.20;99.90
3232;DHT22;1628;48.884;9.210;2022-11-25T05:54:29;4.20;99.90
3232;DHT22;1628;48.884;9.210;2022-11-25T05:56:56;4.10;99.90
3232;DHT22;1628;48.884;9.210;2022-11-25T05:59:22;4.10;99.90
3232;DHT22;1628;48.884;9.210;2022-11-25T06:01:51;4.10;99.90
3232;DHT22;1628;48.884;9.210;2022-11-25T06:04:18;4.10;99.90
3232;DHT22;1628;48.884;9.210;2022-11-25T06:06:45;4.10;99.90
3232;DHT22;1628;48.884;9.210;2022-11-25T06:09:13;4.10;99.90
3232;DHT22;1628;48.884;9.210;2022-11-25T06:11:40;4.20;99.90
3232;DHT22;1628;48.884;9.210;2022-11-25T06:14:07;4.20;99.90
3232;DHT22;1628;48.884;9.210;2022-11-25T06:16:34;4.20;99.90
3232;DHT22;1628;48.884;9.210;2022-11-25T06:19:01;4.20;99.90
3232;DHT22;1628;48.884;9.210;2022-11-25T06:21:30;4.20;99.90
3232;DHT22;1628;48.884;9.210;2022-11-25T06:23:56;4.20;99.90
3232;DHT22;1628;48.884;9.210;2022-11-25T06:26:24;4.20;99.90
3232;DHT22;1628;48.884;9.210;2022-11-25T06:28:52;4.20;99.90
3232;DHT22;1628;48.884;9.210;2022-11-25T06:31:22;4.20;99.90
3232;DHT22;1628;48.884;9.210;2022-11-25T06:33:50;4.20;99.90
3232;DHT22;1628;48.884;9.210;2022-11-25T06:36:18;4.20;99.90
3232;DHT22;1628;48.884;9.210;2022-11-25T06:38:46;4.20;99.90
3232;DHT22;1628;48.884;9.210;2022-11-25T06:41:15;4.10;99.90
3232;DHT22;1628;48.884;9.210;2022-11-25T06:43:43;4.10;99.90
3232;DHT22;1628;48.884;9.210;2022-11-25T06:46:11;4.10;99.90
3232;DHT22;1628;48.884;9.210;2022-11-25T06:48:39;4.10;99.90
3232;DHT22;1628;48.884;9.210;2022-11-25T06:51:07;4.00;99.90
3232;DHT22;1628;48.884;9.210;2022-11-25T06:53:35;4.00;99.90
3232;DHT22;1628;48.884;9.210;2022-11-25T06:56:08;3.90;99.90
3232;DHT22;1628;48.884;9.210;2022-11-25T06:58:36;3.90;99.90
3232;DHT22;1628;48.884;9.210;2022-11-25T07:01:07;3.90;99.90
3232;DHT22;1628;48.884;9.210;2022-11-25T07:03:34;3.90;99.90
3232;DHT22;1628;48.884;9.210;2022-11-25T07:06:01;4.00;99.90
3232;DHT22;1628;48.884;9.210;2022-11-25T07:08:28;4.00;99.90
3232;DHT22;1628;48.884;9.210;2022-11-25T07:11:00;4.00;99.90
3232;DHT22;1628;48.884;9.210;2022-11-25T07:13:27;4.10;99.90
3232;DHT22;1628;48.884;9.210;2022-11-25T07:15:54;4.20;99.90
3232;DHT22;1628;48.884;9.210;2022-11-25T07:18:22;4.20;99.90
3232;DHT22;1628;48.884;9.210;2022-11-25T07:20:48;4.20;99.90
3232;DHT22;1628;48.884;9.210;2022-11-25T07:23:15;4.20;99.90
3232;DHT22;1628;48.884;9.210;2022-11-25T07:25:42;4.30;99.90
3232;DHT22;1628;48.884;9.210;2022-11-25T07:28:09;4.30;99.90
3232;DHT22;1628;48.884;9.210;2022-11-25T07:30:35;4.40;99.90
3232;DHT22;1628;48.884;9.210;2022-11-25T07:33:02;4.60;99.90
3232;DHT22;1628;48.884;9.210;2022-11-25T07:35:34;4.80;99.90
3232;DHT22;1628;48.884;9.210;2022-11-25T07:38:00;5.20;99.90
3232;DHT22;1628;48.884;9.210;2022-11-25T07:40:27;5.60;99.90
3232;DHT22;1628;48.884;9.210;2022-11-25T07:42:54;5.80;99.90
3232;DHT22;1628;48.884;9.210;2022-11-25T07:45:20;5.80;99.90
3232;DHT22;1628;48.884;9.210;2022-11-25T07:47:48;5.80;99.90
3232;DHT22;1628;48.884;9.210;2022-11-25T07:50:15;5.90;99.90
3232;DHT22;1628;48.884;9.210;2022-11-25T07:52:43;5.90;99.90
3232;DHT22;1628;48.884;9.210;2022-11-25T07:55:10;5.90;99.90
3232;DHT22;1628;48.884;9.210;2022-11-25T07:57:37;5.90;99.90
3232;DHT22;1628;48.884;9.210;2022-11-25T08:00:04;5.80;99.90
3232;DHT22;1628;48.884;9.210;2022-11-25T08:02:31;5.80;99.90
3232;DHT22;1628;48.884;9.210;2022-11-25T08:04:58;5.80;99.90
3232;DHT22;1628;48.884;9.210;2022-11-25T08:07:25;5.70;99.90
3232;DHT22;1628;48.884;9.210;2022-11-25T08:09:53;5.70;99.90
3232;DHT22;1628;48.884;9.210;2022-11-25T08:12:20;5.70;99.90
3232;DHT22;1628;48.884;9.210;2022-11-25T08:14:46;5.70;99.90
3232;DHT22;1628;48.884;9.210;2022-11-25T08:17:13;5.70;99.90
3232;DHT22;1628;48.884;9.210;2022-11-25T08:19:40;5.70;99.90
3232;DHT22;1628;48.884;9.210;2022-11-25T08:22:06;5.70;99.90
3232;DHT22;1628;48.884;9.210;2022-11-25T08:24:33;5.80;99.90
3232;DHT22;1628;48.884;9.210;2022-11-25T08:27:01;5.90;99.90
3232;DHT22;1628;48.884;9.210;2022-11-25T08:29:28;5.90;99.90
3232;DHT22;1628;48.884;9.210;2022-11-25T08:31:55;6.00;99.90
3232;DHT22;1628;48.884;9.210;2022-11-25T08:34:23;6.00;99.90
3232;DHT22;1628;48.884;9.210;2022-11-25T08:36:50;6.00;99.90
3232;DHT22;1628;48.884;9.210;2022-11-25T08:39:18;6.00;99.90
3232;DHT22;1628;48.884;9.210;2022-11-25T08:41:45;6.00;99.90
3232;DHT22;1628;48.884;9.210;2022-11-25T08:44:13;6.00;99.90
3232;DHT22;1628;48.884;9.210;2022-11-25T08:46:40;5.90;99.90
3232;DHT22;1628;48.884;9.210;2022-11-25T08:49:08;5.80;99.90
3232;DHT22;1628;48.884;9.210;2022-11-25T08:51:36;5.80;99.90
3232;DHT22;1628;48.884;9.210;2022-11-25T08:54:07;5.90;99.90
3232;DHT22;1628;48.884;9.210;2022-11-25T08:56:34;6.00;99.90
3232;DHT22;1628;48.884;9.210;2022-11-25T08:59:01;6.00;99.90
3232;DHT22;1628;48.884;9.210;2022-11-25T09:01:29;6.10;99.90
3232;DHT22;1628;48.884;9.210;2022-11-25T09:03:57;6.20;99.90
3232;DHT22;1628;48.884;9.210;2022-11-25T09:06:27;6.30;99.90
3232;DHT22;1628;48.884;9.210;2022-11-25T09:08:56;6.40;99.90
3232;DHT22;1628;48.884;9.210;2022-11-25T09:11:24;6.40;99.90
3232;DHT22;1628;48.884;9.210;2022-11-25T09:13:51;6.50;99.90
3232;DHT22;1628;48.884;9.210;2022-11-25T09:16:17;6.70;99.90
3232;DHT22;1628;48.884;9.210;2022-11-25T09:18:46;6.90;99.90
3232;DHT22;1628;48.884;9.210;2022-11-25T09:21:15;7.20;99.90
3232;DHT22;1628;48.884;9.210;2022-11-25T09:23:42;7.60;99.90
3232;DHT22;1628;48.884;9.210;2022-11-25T09:26:19;7.90;99.90
3232;DHT22;1628;48.884;9.210;2022-11-25T09:28:46;8.50;99.90
3232;DHT22;1628;48.884;9.210;2022-11-25T09:31:13;9.10;99.90
3232;DHT22;1628;48.884;9.210;2022-11-25T09:33:39;9.60;99.90
3232;DHT22;1628;48.884;9.210;2022-11-25T09:36:09;9.80;99.90
3232;DHT22;1628;48.884;9.210;2022-11-25T09:38:36;9.90;99.90
3232;DHT22;1628;48.884;9.210;2022-11-25T09:41:08;10.00;99.90
3232;DHT22;1628;48.884;9.210;2022-11-25T09:43:46;9.80;99.90
3232;DHT22;1628;48.884;9.210;2022-11-25T09:46:51;9.60;99.90
3232;DHT22;1628;48.884;9.210;2022-11-25T09:49:33;9.50;99.90
3232;DHT22;1628;48.884;9.210;2022-11-25T09:52:12;9.30;99.90
3232;DHT22;1628;48.884;9.210;2022-11-25T09:54:45;9.20;99.90
3232;DHT22;1628;48.884;9.210;2022-11-25T09:57:24;9.10;99.90
3232;DHT22;1628;48.884;9.210;2022-11-25T10:00:01;9.00;99.90
3232;DHT22;1628;48.884;9.210;2022-11-25T10:02:36;8.90;99.90
3232;DHT22;1628;48.884;9.210;2022-11-25T10:05:06;8.90;99.90
3232;DHT22;1628;48.884;9.210;2022-11-25T10:07:40;8.90;99.90
3232;DHT22;1628;48.884;9.210;2022-11-25T10:10:17;9.00;99.90
3232;DHT22;1628;48.884;9.210;2022-11-25T10:12:48;9.10;99.90
3232;DHT22;1628;48.884;9.210;2022-11-25T10:15:20;9.20;99.90
3232;DHT22;1628;48.884;9.210;2022-11-25T10:17:50;9.30;99.90
3232;DHT22;1628;48.884;9.210;2022-11-25T10:20:20;9.40;99.90
3232;DHT22;1628;48.884;9.210;2022-11-25T10:22:51;9.40;99.90
3232;DHT22;1628;48.884;9.210;2022-11-25T10:25:22;9.50;99.90
3232;DHT22;1628;48.884;9.210;2022-11-25T10:27:54;9.50;99.90
3232;DHT22;1628;48.884;9.210;2022-11-25T10:30:23;9.50;99.90
3232;DHT22;1628;48.884;9.210;2022-11-25T10:32:52;9.60;99.90
3232;DHT22;1628;48.884;9.210;2022-11-25T10:35:25;9.50;99.90
3232;DHT22;1628;48.884;9.210;2022-11-25T10:37:57;9.50;99.90
3232;DHT22;1628;48.884;9.210;2022-11-25T10:40:24;9.40;99.90
3232;DHT22;1628;48.884;9.210;2022-11-25T10:42:51;9.40;99.90
3232;DHT22;1628;48.884;9.210;2022-11-25T10:45:20;9.40;99.90
3232;DHT22;1628;48.884;9.210;2022-11-25T10:50:53;9.40;99.90
3232;DHT22;1628;48.884;9.210;2022-11-25T10:53:24;9.40;99.90
3232;DHT22;1628;48.884;9.210;2022-11-25T10:55:59;9.40;99.90
3232;DHT22;1628;48.884;9.210;2022-11-25T10:58:32;9.40;99.90
3232;DHT22;1628;48.884;9.210;2022-11-25T11:01:13;9.50;99.90
3232;DHT22;1628;48.884;9.210;2022-11-25T11:03:41;9.40;99.90
3232;DHT22;1628;48.884;9.210;2022-11-25T11:06:28;9.40;99.90
3232;DHT22;1628;48.884;9.210;2022-11-25T11:08:57;9.50;99.90
3232;DHT22;1628;48.884;9.210;2022-11-25T11:11:24;9.40;99.90
3232;DHT22;1628;48.884;9.210;2022-11-25T11:13:58;9.40;99.90
3232;DHT22;1628;48.884;9.210;2022-11-25T11:16:31;9.40;99.90
3232;DHT22;1628;48.884;9.210;2022-11-25T11:18:59;9.50;99.90
3232;DHT22;1628;48.884;9.210;2022-11-25T11:21:29;9.50;99.90
3232;DHT22;1628;48.884;9.210;2022-11-25T11:23:58;9.60;99.90
3232;DHT22;1628;48.884;9.210;2022-11-25T11:26:27;9.60;99.90
3232;DHT22;1628;48.884;9.210;2022-11-25T11:28:59;9.60;99.90
3232;DHT22;1628;48.884;9.210;2022-11-25T11:31:30;9.60;99.90
3232;DHT22;1628;48.884;9.210;2022-11-25T11:34:06;9.70;99.90
3232;DHT22;1628;48.884;9.210;2022-11-25T11:36:45;9.70;99.90
3232;DHT22;1628;48.884;9.210;2022-11-25T11:39:25;9.70;99.90
3232;DHT22;1628;48.884;9.210;2022-11-25T11:41:59;9.70;99.90
3232;DHT22;1628;48.884;9.210;2022-11-25T11:44:36;9.70;99.90
3232;DHT22;1628;48.884;9.210;2022-11-25T11:47:12;9.70;99.90
3232;DHT22;1628;48.884;9.210;2022-11-25T11:49:55;9.70;99.90
3232;DHT22;1628;48.884;9.210;2022-11-25T11:52:31;9.70;99.90
3232;DHT22;1628;48.884;9.210;2022-11-25T11:55:19;9.70;99.90
3232;DHT22;1628;48.884;9.210;2022-11-25T11:57:54;9.70;99.90
3232;DHT22;1628;48.884;9.210;2022-11-25T12:00:24;9.70;99.90
3232;DHT22;1628;48.884;9.210;2022-11-25T12:02:57;9.70;99.90
3232;DHT22;1628;48.884;9.210;2022-11-25T12:05:27;9.80;99.90
3232;DHT22;1628;48.884;9.210;2022-11-25T12:08:04;9.80;99.90
3232;DHT22;1628;48.884;9.210;2022-11-25T12:10:37;9.80;99.90
3232;DHT22;1628;48.884;9.210;2022-11-25T12:13:11;9.80;99.90
3232;DHT22;1628;48.884;9.210;2022-11-25T12:15:44;9.80;99.90
3232;DHT22;1628;48.884;9.210;2022-11-25T12:18:19;9.80;99.90
3232;DHT22;1628;48.884;9.210;2022-11-25T12:20:52;9.80;99.90
3232;DHT22;1628;48.884;9.210;2022-11-25T12:23:27;9.80;99.90
3232;DHT22;1628;48.884;9.210;2022-11-25T12:26:02;9.70;99.90
3232;DHT22;1628;48.884;9.210;2022-11-25T12:28:34;9.70;99.90
3232;DHT22;1628;48.884;9.210;2022-11-25T12:31:10;9.70;99.90
3232;DHT22;1628;48.884;9.210;2022-11-25T12:33:43;9.60;99.90
3232;DHT22;1628;48.884;9.210;2022-11-25T12:36:16;9.50;99.90
3232;DHT22;1628;48.884;9.210;2022-11-25T12:38:45;9.50;99.90
3232;DHT22;1628;48.884;9.210;2022-11-25T12:41:21;9.50;99.90
3232;DHT22;1628;48.884;9.210;2022-11-25T12:43:53;9.50;99.90
3232;DHT22;1628;48.884;9.210;2022-11-25T12:46:25;9.50;99.90
3232;DHT22;1628;48.884;9.210;2022-11-25T12:48:56;9.50;99.90
3232;DHT22;1628;48.884;9.210;2022-11-25T12:51:34;9.50;99.90
3232;DHT22;1628;48.884;9.210;2022-11-25T12:54:14;9.40;99.90
3232;DHT22;1628;48.884;9.210;2022-11-25T12:57:10;9.40;99.90
3232;DHT22;1628;48.884;9.210;2022-11-25T12:59:56;9.40;99.90
3232;DHT22;1628;48.884;9.210;2022-11-25T13:02:40;9.30;99.90
3232;DHT22;1628;48.884;9.210;2022-11-25T13:05:34;9.30;99.90
3232;DHT22;1628;48.884;9.210;2022-11-25T13:08:16;9.30;99.90
3232;DHT22;1628;48.884;9.210;2022-11-25T13:10:55;9.30;99.90
3232;DHT22;1628;48.884;9.210;2022-11-25T13:13:33;9.40;99.90
3232;DHT22;1628;48.884;9.210;2022-11-25T13:16:05;9.40;99.90
3232;DHT22;1628;48.884;9.210;2022-11-25T13:18:32;9.50;99.90
3232;DHT22;1628;48.884;9.210;2022-11-25T13:21:07;9.50;99.90
3232;DHT22;1628;48.884;9.210;2022-11-25T13:23:45;9.60;99.90
3232;DHT22;1628;48.884;9.210;2022-11-25T13:26:47;9.70;99.90
3232;DHT22;1628;48.884;9.210;2022-11-25T13:32:30;9.80;99.90
3232;DHT22;1628;48.884;9.210;2022-11-25T13:37:59;9.90;99.90
3232;DHT22;1628;48.884;9.210;2022-11-25T13:40:35;9.90;99.90
3232;DHT22;1628;48.884;9.210;2022-11-25T13:43:03;9.90;99.90
3232;DHT22;1628;48.884;9.210;2022-11-25T13:45:32;10.00;99.90
3232;DHT22;1628;48.884;9.210;2022-11-25T13:48:10;9.90;99.90
3232;DHT22;1628;48.884;9.210;2022-11-25T13:50:38;9.90;99.90
3232;DHT22;1628;48.884;9.210;2022-11-25T13:53:07;9.90;99.90
3232;DHT22;1628;48.884;9.210;2022-11-25T13:55:44;9.90;99.90
3232;DHT22;1628;48.884;9.210;2022-11-25T13:58:20;10.00;99.90
3232;DHT22;1628;48.884;9.210;2022-11-25T14:01:19;10.00;99.90
3232;DHT22;1628;48.884;9.210;2022-11-25T14:03:52;10.10;99.90
3232;DHT22;1628;48.884;9.210;2022-11-25T14:06:37;10.10;99.90
3232;DHT22;1628;48.884;9.210;2022-11-25T14:09:12;10.20;99.90
3232;DHT22;1628;48.884;9.210;2022-11-25T14:11:53;10.20;99.90
3232;DHT22;1628;48.884;9.210;2022-11-25T14:14:59;10.20;99.90
3232;DHT22;1628;48.884;9.210;2022-11-25T14:17:53;10.30;99.90
3232;DHT22;1628;48.884;9.210;2022-11-25T14:20:37;10.30;99.90
3232;DHT22;1628;48.884;9.210;2022-11-25T14:23:24;10.30;99.90
3232;DHT22;1628;48.884;9.210;2022-11-25T14:26:03;10.30;99.90
3232;DHT22;1628;48.884;9.210;2022-11-25T14:28:35;10.50;99.90
3232;DHT22;1628;48.884;9.210;2022-11-25T14:31:08;10.70;99.90
3232;DHT22;1628;48.884;9.210;2022-11-25T14:33:43;11.00;99.90
3232;DHT22;1628;48.884;9.210;2022-11-25T14:36:19;11.30;99.90
3232;DHT22;1628;48.884;9.210;2022-11-25T14:38:51;11.50;99.90
3232;DHT22;1628;48.884;9.210;2022-11-25T14:41:22;11.60;99.90
3232;DHT22;1628;48.884;9.210;2022-11-25T14:43:54;11.60;99.90
3232;DHT22;1628;48.884;9.210;2022-11-25T14:46:23;11.70;99.90
3232;DHT22;1628;48.884;9.210;2022-11-25T14:48:55;11.60;99.90
3232;DHT22;1628;48.884;9.210;2022-11-25T14:51:23;11.60;99.90
3232;DHT22;1628;48.884;9.210;2022-11-25T14:53:51;11.40;99.90
3232;DHT22;1628;48.884;9.210;2022-11-25T14:56:23;11.30;99.90
3232;DHT22;1628;48.884;9.210;2022-11-25T14:58:53;11.30;99.90
3232;DHT22;1628;48.884;9.210;2022-11-25T15:01:22;11.10;99.90
3232;DHT22;1628;48.884;9.210;2022-11-25T15:03:50;11.10;99.90
3232;DHT22;1628;48.884;9.210;2022-11-25T15:06:32;11.00;99.90
3232;DHT22;1628;48.884;9.210;2022-11-25T15:08:59;10.90;99.90
3232;DHT22;1628;48.884;9.210;2022-11-25T15:11:28;10.80;99.90
3232;DHT22;1628;48.884;9.210;2022-11-25T15:14:00;10.70;99.90
3232;DHT22;1628;48.884;9.210;2022-11-25T15:16:31;10.70;99.90
3232;DHT22;1628;48.884;9.210;2022-11-25T15:19:01;10.60;99.90
3232;DHT22;1628;48.884;9.210;2022-11-25T15:21:31;10.60;99.90
3232;DHT22;1628;48.884;9.210;2022-11-25T15:23:59;10.50;99.90
3232;DHT22;1628;48.884;9.210;2022-11-25T15:26:28;10.50;99.90
3232;DHT22;1628;48.884;9.210;2022-11-25T15:28:56;10.50;99.90
3232;DHT22;1628;48.884;9.210;2022-11-25T15:31:26;10.50;99.90
3232;DHT22;1628;48.884;9.210;2022-11-25T15:33:56;10.40;99.90
3232;DHT22;1628;48.884;9.210;2022-11-25T15:36:24;10.40;99.90
3232;DHT22;1628;48.884;9.210;2022-11-25T15:38:53;10.30;99.90
3232;DHT22;1628;48.884;9.210;2022-11-25T15:41:31;10.30;99.90
3232;DHT22;1628;48.884;9.210;2022-11-25T15:44:00;10.20;99.90
3232;DHT22;1628;48.884;9.210;2022-11-25T15:46:29;10.20;99.90
3232;DHT22;1628;48.884;9.210;2022-11-25T15:48:58;10.10;99.90
3232;DHT22;1628;48.884;9.210;2022-11-25T15:51:32;10.10;99.90
3232;DHT22;1628;48.884;9.210;2022-11-25T15:54:04;10.00;99.90
3232;DHT22;1628;48.884;9.210;2022-11-25T15:56:36;10.00;99.90
3232;DHT22;1628;48.884;9.210;2022-11-25T15:59:03;9.90;99.90
3232;DHT22;1628;48.884;9.210;2022-11-25T16:01:30;9.90;99.90
3232;DHT22;1628;48.884;9.210;2022-11-25T16:04:14;9.90;99.90
3232;DHT22;1628;48.884;9.210;2022-11-25T16:06:52;9.90;99.90
3232;DHT22;1628;48.884;9.210;2022-11-25T16:09:22;9.90;99.90
3232;DHT22;1628;48.884;9.210;2022-11-25T16:11:49;9.80;99.90
3232;DHT22;1628;48.884;9.210;2022-11-25T16:14:17;9.80;99.90
3232;DHT22;1628;48.884;9.210;2022-11-25T16:16:45;9.80;99.90
3232;DHT22;1628;48.884;9.210;2022-11-25T16:19:15;9.70;99.90
3232;DHT22;1628;48.884;9.210;2022-11-25T16:21:50;9.70;99.90
3232;DHT22;1628;48.884;9.210;2022-11-25T16:24:29;9.70;99.90
3232;DHT22;1628;48.884;9.210;2022-11-25T16:27:00;9.60;99.90
3232;DHT22;1628;48.884;9.210;2022-11-25T16:29:30;9.60;99.90
3232;DHT22;1628;48.884;9.210;2022-11-25T16:31:57;9.60;99.90
3232;DHT22;1628;48.884;9.210;2022-11-25T16:34:24;9.60;99.90
3232;DHT22;1628;48.884;9.210;2022-11-25T16:36:51;9.60;99.90
3232;DHT22;1628;48.884;9.210;2022-11-25T16:39:17;9.60;99.90
3232;DHT22;1628;48.884;9.210;2022-11-25T16:41:54;9.60;99.90
3232;DHT22;1628;48.884;9.210;2022-11-25T16:44:23;9.60;99.90
3232;DHT22;1628;48.884;9.210;2022-11-25T16:46:50;9.60;99.90
3232;DHT22;1628;48.884;9.210;2022-11-25T16:49:18;9.60;99.90
3232;DHT22;1628;48.884;9.210;2022-11-25T16:51:45;9.60;99.90
3232;DHT22;1628;48.884;9.210;2022-11-25T16:54:15;9.60;99.90
3232;DHT22;1628;48.884;9.210;2022-11-25T16:56:42;9.60;99.90
3232;DHT22;1628;48.884;9.210;2022-11-25T16:59:14;9.60;99.90
3232;DHT22;1628;48.884;9.210;2022-11-25T17:01:42;9.60;99.90
3232;DHT22;1628;48.884;9.210;2022-11-25T17:04:10;9.60;99.90
3232;DHT22;1628;48.884;9.210;2022-11-25T17:06:37;9.60;99.90
3232;DHT22;1628;48.884;9.210;2022-11-25T17:09:05;9.60;99.90
3232;DHT22;1628;48.884;9.210;2022-11-25T17:11:34;9.60;99.90
3232;DHT22;1628;48.884;9.210;2022-11-25T17:14:05;9.60;99.90
3232;DHT22;1628;48.884;9.210;2022-11-25T17:16:41;9.50;99.90
3232;DHT22;1628;48.884;9.210;2022-11-25T17:19:11;9.50;99.90
3232;DHT22;1628;48.884;9.210;2022-11-25T17:21:39;9.50;99.90
3232;DHT22;1628;48.884;9.210;2022-11-25T17:24:12;9.50;99.90
3232;DHT22;1628;48.884;9.210;2022-11-25T17:26:41;9.40;99.90
3232;DHT22;1628;48.884;9.210;2022-11-25T17:29:12;9.40;99.90
3232;DHT22;1628;48.884;9.210;2022-11-25T17:31:41;9.40;99.90
3232;DHT22;1628;48.884;9.210;2022-11-25T17:34:12;9.40;99.90
3232;DHT22;1628;48.884;9.210;2022-11-25T17:36:40;9.40;99.90
3232;DHT22;1628;48.884;9.210;2022-11-25T17:39:08;9.40;99.90
3232;DHT22;1628;48.884;9.210;2022-11-25T17:41:39;9.40;99.90
3232;DHT22;1628;48.884;9.210;2022-11-25T17:44:15;9.40;99.90
3232;DHT22;1628;48.884;9.210;2022-11-25T17:46:44;9.40;99.90
3232;DHT22;1628;48.884;9.210;2022-11-25T17:49:13;9.40;99.90
3232;DHT22;1628;48.884;9.210;2022-11-25T17:51:40;9.30;99.90
3232;DHT22;1628;48.884;9.210;2022-11-25T17:54:07;9.30;99.90
3232;DHT22;1628;48.884;9.210;2022-11-25T17:56:34;9.30;99.90
3232;DHT22;1628;48.884;9.210;2022-11-25T17:59:04;9.30;99.90
3232;DHT22;1628;48.884;9.210;2022-11-25T18:01:31;9.30;99.90
3232;DHT22;1628;48.884;9.210;2022-11-25T18:04:02;9.30;99.90
3232;DHT22;1628;48.884;9.210;2022-11-25T18:06:33;9.40;99.90
3232;DHT22;1628;48.884;9.210;2022-11-25T18:09:00;9.30;99.90
3232;DHT22;1628;48.884;9.210;2022-11-25T18:11:26;9.30;99.90
3232;DHT22;1628;48.884;9.210;2022-11-25T18:13:53;9.30;99.90
3232;DHT22;1628;48.884;9.210;2022-11-25T18:16:21;9.40;99.90
3232;DHT22;1628;48.884;9.210;2022-11-25T18:18:48;9.40;99.90
3232;DHT22;1628;48.884;9.210;2022-11-25T18:21:16;9.40;99.90
3232;DHT22;1628;48.884;9.210;2022-11-25T18:23:44;9.40;99.90
3232;DHT22;1628;48.884;9.210;2022-11-25T18:26:11;9.40;99.90
3232;DHT22;1628;48.884;9.210;2022-11-25T18:28:37;9.30;99.90
3232;DHT22;1628;48.884;9.210;2022-11-25T18:31:05;9.30;99.90
3232;DHT22;1628;48.884;9.210;2022-11-25T18:33:32;9.30;99.90
3232;DHT22;1628;48.884;9.210;2022-11-25T18:35:59;9.30;99.90
3232;DHT22;1628;48.884;9.210;2022-11-25T18:38:27;9.30;99.90
3232;DHT22;1628;48.884;9.210;2022-11-25T18:40:54;9.30;99.90
3232;DHT22;1628;48.884;9.210;2022-11-25T18:43:22;9.30;99.90
3232;DHT22;1628;48.884;9.210;2022-11-25T18:45:51;9.30;99.90
3232;DHT22;1628;48.884;9.210;2022-11-25T18:48:20;9.30;99.90
3232;DHT22;1628;48.884;9.210;2022-11-25T18:50:48;9.30;99.90
3232;DHT22;1628;48.884;9.210;2022-11-25T18:53:16;9.30;99.90
3232;DHT22;1628;48.884;9.210;2022-11-25T18:55:45;9.30;99.90
3232;DHT22;1628;48.884;9.210;2022-11-25T18:58:15;9.30;99.90
3232;DHT22;1628;48.884;9.210;2022-11-25T19:00:42;9.20;99.90
3232;DHT22;1628;48.884;9.210;2022-11-25T19:03:16;9.20;99.90
3232;DHT22;1628;48.884;9.210;2022-11-25T19:05:43;9.20;99.90
3232;DHT22;1628;48.884;9.210;2022-11-25T19:08:10;9.20;99.90
3232;DHT22;1628;48.884;9.210;2022-11-25T19:10:37;9.20;99.90
3232;DHT22;1628;48.884;9.210;2022-11-25T19:13:12;9.20;99.90
3232;DHT22;1628;48.884;9.210;2022-11-25T19:15:41;9.20;99.90
3232;DHT22;1628;48.884;9.210;2022-11-25T19:18:10;9.20;99.90
3232;DHT22;1628;48.884;9.210;2022-11-25T19:20:38;9.10;99.90
3232;DHT22;1628;48.884;9.210;2022-11-25T19:23:15;9.10;99.90
3232;DHT22;1628;48.884;9.210;2022-11-25T19:25:42;9.10;99.90
3232;DHT22;1628;48.884;9.210;2022-11-25T19:28:12;9.10;99.90
3232;DHT22;1628;48.884;9.210;2022-11-25T19:30:40;9.10;99.90
3232;DHT22;1628;48.884;9.210;2022-11-25T19:33:11;9.10;99.90
3232;DHT22;1628;48.884;9.210;2022-11-25T19:35:40;9.10;99.90
3232;DHT22;1628;48.884;9.210;2022-11-25T19:38:10;9.10;99.90
3232;DHT22;1628;48.884;9.210;2022-11-25T19:40:38;9.10;99.90
3232;DHT22;1628;48.884;9.210;2022-11-25T19:43:05;9.10;99.90
3232;DHT22;1628;48.884;9.210;2022-11-25T19:45:35;9.10;99.90
3232;DHT22;1628;48.884;9.210;2022-11-25T19:48:04;9.10;99.90
3232;DHT22;1628;48.884;9.210;2022-11-25T19:50:34;9.10;99.90
3232;DHT22;1628;48.884;9.210;2022-11-25T19:53:03;9.10;99.90
3232;DHT22;1628;48.884;9.210;2022-11-25T19:55:29;9.10;99.90
3232;DHT22;1628;48.884;9.210;2022-11-25T19:57:57;9.10;99.90
3232;DHT22;1628;48.884;9.210;2022-11-25T20:00:24;9.10;99.90
3232;DHT22;1628;48.884;9.210;2022-11-25T20:02:53;9.10;99.90
3232;DHT22;1628;48.884;9.210;2022-11-25T20:05:24;9.10;99.90
3232;DHT22;1628;48.884;9.210;2022-11-25T20:07:53;9.00;99.90
3232;DHT22;1628;48.884;9.210;2022-11-25T20:10:22;9.00;99.90
3232;DHT22;1628;48.884;9.210;2022-11-25T20:12:49;8.90;99.90
3232;DHT22;1628;48.884;9.210;2022-11-25T20:15:16;8.90;99.90
3232;DHT22;1628;48.884;9.210;2022-11-25T20:17:46;8.80;99.90
3232;DHT22;1628;48.884;9.210;2022-11-25T20:20:17;8.80;99.90
3232;DHT22;1628;48.884;9.210;2022-11-25T20:22:52;8.70;99.90
3232;DHT22;1628;48.884;9.210;2022-11-25T20:25:20;8.70;99.90
3232;DHT22;1628;48.884;9.210;2022-11-25T20:27:47;8.60;99.90
3232;DHT22;1628;48.884;9.210;2022-11-25T20:30:15;8.50;99.90
3232;DHT22;1628;48.884;9.210;2022-11-25T20:32:42;8.50;99.90
3232;DHT22;1628;48.884;9.210;2022-11-25T20:35:09;8.40;99.90
3232;DHT22;1628;48.884;9.210;2022-11-25T20:37:38;8.40;99.90
3232;DHT22;1628;48.884;9.210;2022-11-25T20:40:17;8.30;99.90
3232;DHT22;1628;48.884;9.210;2022-11-25T20:42:45;8.30;99.90
3232;DHT22;1628;48.884;9.210;2022-11-25T20:45:13;8.30;99.90
3232;DHT22;1628;48.884;9.210;2022-11-25T20:47:40;8.20;99.90
3232;DHT22;1628;48.884;9.210;2022-11-25T20:50:09;8.20;99.90
3232;DHT22;1628;48.884;9.210;2022-11-25T20:52:39;8.20;99.90
3232;DHT22;1628;48.884;9.210;2022-11-25T20:55:14;8.10;99.90
3232;DHT22;1628;48.884;9.210;2022-11-25T20:57:41;8.00;99.90
3232;DHT22;1628;48.884;9.210;2022-11-25T21:00:16;8.00;99.90
3232;DHT22;1628;48.884;9.210;2022-11-25T21:02:44;8.00;99.90
3232;DHT22;1628;48.884;9.210;2022-11-25T21:05:11;7.90;99.90
3232;DHT22;1628;48.884;9.210;2022-11-25T21:07:39;7.90;99.90
3232;DHT22;1628;48.884;9.210;2022-11-25T21:10:22;7.90;99.90
3232;DHT22;1628;48.884;9.210;2022-11-25T21:12:50;7.80;99.90
3232;DHT22;1628;48.884;9.210;2022-11-25T21:15:18;7.80;99.90
3232;DHT22;1628;48.884;9.210;2022-11-25T21:17:46;7.80;99.90
3232;DHT22;1628;48.884;9.210;2022-11-25T21:20:14;7.80;99.90
3232;DHT22;1628;48.884;9.210;2022-11-25T21:22:44;7.80;99.90
3232;DHT22;1628;48.884;9.210;2022-11-25T21:25:15;7.80;99.90
3232;DHT22;1628;48.884;9.210;2022-11-25T21:27:44;7.80;99.90
3232;DHT22;1628;48.884;9.210;2022-11-25T21:30:16;7.80;99.90
3232;DHT22;1628;48.884;9.210;2022-11-25T21:32:44;7.80;99.90
3232;DHT22;1628;48.884;9.210;2022-11-25T21:35:10;7.70;99.90
3232;DHT22;1628;48.884;9.210;2022-11-25T21:37:37;7.70;99.90
3232;DHT22;1628;48.884;9.210;2022-11-25T21:40:09;7.70;99.90
3232;DHT22;1628;48.884;9.210;2022-11-25T21:42:41;7.80;99.90
3232;DHT22;1628;48.884;9.210;2022-11-25T21:45:12;7.80;99.90
3232;DHT22;1628;48.884;9.210;2022-11-25T21:47:40;7.80;99.90